YRARK LRDV-LRDV
Flight info
| Callsign | YRARK |
|---|---|
| Flight time | 0h 28m |
| Altitude | 1300 |
| Route | VFR AERODROME TRAFFIC CIRCUIT RWY 12 |
| Aircraft | C172/L-SFG/C |
Departure
| Time | 2026-04-15 08:16 |
|---|---|
| Airport | Săulești Airfield (LRDV) |
Arrival
| Time | 2026-04-15 08:44 |
|---|---|
| Airport | Săulești Airfield (LRDV) |
| Time | Latitude | Longitude | Altitude | Speed | Heading |
|---|---|---|---|---|---|
| 2026-04-15 08:07 | 45.86381 | 22.96481 | 643 ft | 0 kts | 18° |
| 2026-04-15 08:08 | 45.86382 | 22.96481 | 640 ft | 2 kts | 17° |
| 2026-04-15 08:09 | 45.86391 | 22.96485 | 635 ft | 3 kts | 16° |
| 2026-04-15 08:09 | 45.86392 | 22.96486 | 634 ft | 0 kts | 16° |
| 2026-04-15 08:10 | 45.86396 | 22.96487 | 633 ft | 5 kts | 17° |
| 2026-04-15 08:10 | 45.86430 | 22.96505 | 632 ft | 0 kts | 21° |
| 2026-04-15 08:13 | 45.86437 | 22.96504 | 632 ft | 4 kts | 354° |
| 2026-04-15 08:13 | 45.86498 | 22.96509 | 637 ft | 11 kts | 350° |
| 2026-04-15 08:13 | 45.86554 | 22.96472 | 636 ft | 6 kts | 319° |
| 2026-04-15 08:13 | 45.86568 | 22.96449 | 636 ft | 0 kts | 315° |
| 2026-04-15 08:14 | 45.86589 | 22.96427 | 631 ft | 4 kts | 323° |
| 2026-04-15 08:14 | 45.86601 | 22.96416 | 640 ft | 6 kts | 332° |
| 2026-04-15 08:14 | 45.86664 | 22.96395 | 639 ft | 8 kts | 348° |
| 2026-04-15 08:14 | 45.86690 | 22.96395 | 635 ft | 2 kts | 106° |
| 2026-04-15 08:15 | 45.86689 | 22.96404 | 635 ft | 3 kts | 98° |
| 2026-04-15 08:15 | 45.86667 | 22.96460 | 638 ft | 21 kts | 123° |
| 2026-04-15 08:15 | 45.86498 | 22.96843 | 634 ft | 66 kts | 124° |
| 2026-04-15 08:15 | 45.86239 | 22.97497 | 757 ft | 78 kts | 118° |
| 2026-04-15 08:16 | 45.86001 | 22.98217 | 937 ft | 80 kts | 111° |
| 2026-04-15 08:16 | 45.85797 | 22.98994 | 1087 ft | 84 kts | 113° |
| 2026-04-15 08:16 | 45.85613 | 22.99509 | 1180 ft | 88 kts | 117° |
| 2026-04-15 08:16 | 45.85366 | 23.00585 | 1419 ft | 87 kts | 71° |
| 2026-04-15 08:17 | 45.85682 | 23.00962 | 1437 ft | 96 kts | 30° |
| 2026-04-15 08:17 | 45.86276 | 23.01422 | 1506 ft | 99 kts | 27° |
| 2026-04-15 08:17 | 45.86915 | 23.01531 | 1618 ft | 99 kts | 335° |
| 2026-04-15 08:17 | 45.87349 | 23.00655 | 1437 ft | 116 kts | 299° |
| 2026-04-15 08:18 | 45.87749 | 22.99631 | 1431 ft | 114 kts | 298° |
| 2026-04-15 08:18 | 45.88106 | 22.98635 | 1355 ft | 117 kts | 295° |
| 2026-04-15 08:18 | 45.88386 | 22.97544 | 1381 ft | 112 kts | 288° |
| 2026-04-15 08:18 | 45.88534 | 22.96445 | 1519 ft | 110 kts | 275° |
| 2026-04-15 08:19 | 45.88371 | 22.95338 | 1482 ft | 118 kts | 220° |
| 2026-04-15 08:19 | 45.87613 | 22.94770 | 1318 ft | 118 kts | 202° |
| 2026-04-15 08:19 | 45.87170 | 22.95296 | 1057 ft | 83 kts | 117° |
| 2026-04-15 08:19 | 45.86898 | 22.95967 | 711 ft | 75 kts | 121° |
| 2026-04-15 08:20 | 45.86668 | 22.96492 | 634 ft | 53 kts | 121° |
| 2026-04-15 08:20 | 45.86392 | 22.97104 | 673 ft | 83 kts | 119° |
| 2026-04-15 08:20 | 45.86089 | 22.97806 | 878 ft | 81 kts | 118° |
| 2026-04-15 08:20 | 45.85837 | 22.98595 | 967 ft | 97 kts | 111° |
| 2026-04-15 08:21 | 45.85564 | 22.99538 | 1107 ft | 107 kts | 110° |
| 2026-04-15 08:21 | 45.85330 | 23.00536 | 1314 ft | 107 kts | 91° |
| 2026-04-15 08:21 | 45.85785 | 23.01305 | 1478 ft | 112 kts | 31° |
| 2026-04-15 08:21 | 45.86469 | 23.01932 | 1515 ft | 117 kts | 30° |
| 2026-04-15 08:22 | 45.87111 | 23.02060 | 1609 ft | 105 kts | 296° |
| 2026-04-15 08:22 | 45.87420 | 23.01045 | 1525 ft | 113 kts | 296° |
| 2026-04-15 08:22 | 45.87807 | 23.00067 | 1527 ft | 110 kts | 299° |
| 2026-04-15 08:22 | 45.88133 | 22.99079 | 1491 ft | 114 kts | 289° |
| 2026-04-15 08:23 | 45.88527 | 22.98125 | 1468 ft | 110 kts | 302° |
| 2026-04-15 08:23 | 45.88841 | 22.97114 | 1428 ft | 113 kts | 281° |
| 2026-04-15 08:23 | 45.89068 | 22.96042 | 1434 ft | 111 kts | 290° |
| 2026-04-15 08:23 | 45.89238 | 22.94955 | 1402 ft | 112 kts | 282° |
| 2026-04-15 08:24 | 45.89434 | 22.93965 | 1472 ft | 110 kts | 285° |
| 2026-04-15 08:24 | 45.89344 | 22.92959 | 1396 ft | 116 kts | 225° |
| 2026-04-15 08:24 | 45.88667 | 22.92283 | 1301 ft | 116 kts | 201° |
| 2026-04-15 08:24 | 45.88263 | 22.92827 | 1228 ft | 105 kts | 91° |
| 2026-04-15 08:25 | 45.87945 | 22.93731 | 1060 ft | 99 kts | 121° |
| 2026-04-15 08:25 | 45.87577 | 22.94575 | 900 ft | 93 kts | 123° |
| 2026-04-15 08:25 | 45.87241 | 22.95292 | 756 ft | 82 kts | 124° |
| 2026-04-15 08:25 | 45.86936 | 22.95941 | 662 ft | 77 kts | 124° |
| 2026-04-15 08:26 | 45.86681 | 22.96477 | 634 ft | 52 kts | 124° |
| 2026-04-15 08:26 | 45.86403 | 22.97073 | 656 ft | 87 kts | 122° |
| 2026-04-15 08:26 | 45.86063 | 22.97817 | 864 ft | 91 kts | 121° |
| 2026-04-15 08:26 | 45.85713 | 22.98590 | 1064 ft | 95 kts | 122° |
| 2026-04-15 08:27 | 45.85331 | 22.99417 | 1191 ft | 108 kts | 118° |
| 2026-04-15 08:27 | 45.85145 | 23.00422 | 1396 ft | 106 kts | 63° |
| 2026-04-15 08:27 | 45.85777 | 23.01098 | 1406 ft | 115 kts | 32° |
| 2026-04-15 08:27 | 45.86412 | 23.01699 | 1412 ft | 106 kts | 33° |
| 2026-04-15 08:28 | 45.87050 | 23.01845 | 1521 ft | 104 kts | 309° |
| 2026-04-15 08:28 | 45.87456 | 23.00882 | 1481 ft | 119 kts | 300° |
| 2026-04-15 08:28 | 45.87855 | 22.99852 | 1572 ft | 118 kts | 299° |
| 2026-04-15 08:28 | 45.88235 | 22.98791 | 1614 ft | 120 kts | 298° |
| 2026-04-15 08:29 | 45.88548 | 22.97692 | 1684 ft | 119 kts | 285° |
| 2026-04-15 08:29 | 45.88793 | 22.96513 | 1594 ft | 129 kts | 288° |
| 2026-04-15 08:29 | 45.89049 | 22.95312 | 1725 ft | 116 kts | 283° |
| 2026-04-15 08:29 | 45.89275 | 22.94170 | 1655 ft | 126 kts | 286° |
| 2026-04-15 08:30 | 45.89508 | 22.93027 | 1748 ft | 121 kts | 268° |
| 2026-04-15 08:30 | 45.88976 | 22.92139 | 1719 ft | 124 kts | 208° |
| 2026-04-15 08:30 | 45.88144 | 22.92096 | 1561 ft | 131 kts | 140° |
| 2026-04-15 08:30 | 45.87786 | 22.93249 | 1378 ft | 127 kts | 99° |
| 2026-04-15 08:31 | 45.87593 | 22.94348 | 1060 ft | 100 kts | 112° |
| 2026-04-15 08:31 | 45.87292 | 22.95169 | 820 ft | 90 kts | 122° |
| 2026-04-15 08:31 | 45.86964 | 22.95875 | 687 ft | 81 kts | 124° |
| 2026-04-15 08:31 | 45.86668 | 22.96490 | 633 ft | 62 kts | 125° |
| 2026-04-15 08:32 | 45.86438 | 22.96972 | 635 ft | 72 kts | 124° |
| 2026-04-15 08:32 | 45.86141 | 22.97622 | 759 ft | 83 kts | 122° |
| 2026-04-15 08:32 | 45.85819 | 22.98330 | 910 ft | 87 kts | 124° |
| 2026-04-15 08:32 | 45.85474 | 22.99061 | 1055 ft | 93 kts | 124° |
| 2026-04-15 08:33 | 45.85131 | 22.99913 | 1235 ft | 100 kts | 100° |
| 2026-04-15 08:33 | 45.85489 | 23.00699 | 1389 ft | 109 kts | 35° |
| 2026-04-15 08:33 | 45.86180 | 23.01270 | 1427 ft | 120 kts | 31° |
| 2026-04-15 08:33 | 45.86905 | 23.01915 | 1472 ft | 121 kts | 25° |
| 2026-04-15 08:34 | 45.87556 | 23.01449 | 1628 ft | 116 kts | 303° |
| 2026-04-15 08:34 | 45.87986 | 23.00462 | 1703 ft | 117 kts | 301° |
| 2026-04-15 08:34 | 45.88427 | 22.99447 | 1717 ft | 122 kts | 305° |
| 2026-04-15 08:34 | 45.88875 | 22.98437 | 1833 ft | 119 kts | 302° |
| 2026-04-15 08:35 | 45.89291 | 22.97384 | 1844 ft | 123 kts | 300° |
| 2026-04-15 08:35 | 45.89682 | 22.96274 | 1835 ft | 127 kts | 296° |
| 2026-04-15 08:35 | 45.90051 | 22.95155 | 1840 ft | 127 kts | 297° |
| 2026-04-15 08:35 | 45.90337 | 22.93965 | 1835 ft | 126 kts | 273° |
| 2026-04-15 08:36 | 45.90048 | 22.92826 | 1675 ft | 126 kts | 222° |
| 2026-04-15 08:36 | 45.89313 | 22.92174 | 1577 ft | 122 kts | 212° |
| 2026-04-15 08:36 | 45.88520 | 22.91909 | 1386 ft | 124 kts | 157° |
| 2026-04-15 08:36 | 45.88061 | 22.92866 | 1234 ft | 111 kts | 113° |
| 2026-04-15 08:37 | 45.87829 | 22.93740 | 1108 ft | 84 kts | 114° |
| 2026-04-15 08:37 | 45.87591 | 22.94468 | 950 ft | 81 kts | 121° |
| 2026-04-15 08:37 | 45.87294 | 22.95151 | 799 ft | 80 kts | 125° |
| 2026-04-15 08:37 | 45.86986 | 22.95810 | 687 ft | 79 kts | 125° |
| 2026-04-15 08:38 | 45.86705 | 22.96424 | 642 ft | 62 kts | 124° |
| 2026-04-15 08:38 | 45.86441 | 22.96981 | 639 ft | 84 kts | 121° |
| 2026-04-15 08:38 | 45.86095 | 22.97687 | 774 ft | 88 kts | 125° |
| 2026-04-15 08:38 | 45.85741 | 22.98411 | 937 ft | 89 kts | 123° |
| 2026-04-15 08:39 | 45.85411 | 22.99174 | 1076 ft | 91 kts | 118° |
| 2026-04-15 08:39 | 45.85115 | 22.99957 | 1256 ft | 89 kts | 115° |
| 2026-04-15 08:39 | 45.85251 | 23.00755 | 1405 ft | 91 kts | 46° |
| 2026-04-15 08:39 | 45.85780 | 23.01317 | 1444 ft | 99 kts | 33° |
| 2026-04-15 08:40 | 45.86381 | 23.01886 | 1449 ft | 104 kts | 33° |
| 2026-04-15 08:40 | 45.86986 | 23.02450 | 1466 ft | 106 kts | 34° |
| 2026-04-15 08:40 | 45.87611 | 23.02267 | 1483 ft | 108 kts | 305° |
| 2026-04-15 08:40 | 45.87964 | 23.01319 | 1512 ft | 107 kts | 291° |
| 2026-04-15 08:41 | 45.88194 | 23.00302 | 1528 ft | 108 kts | 284° |
| 2026-04-15 08:41 | 45.88347 | 22.99245 | 1547 ft | 108 kts | 284° |
| 2026-04-15 08:41 | 45.88582 | 22.98225 | 1570 ft | 108 kts | 291° |
| 2026-04-15 08:41 | 45.88885 | 22.97239 | 1591 ft | 108 kts | 297° |
| 2026-04-15 08:42 | 45.89241 | 22.96295 | 1619 ft | 107 kts | 301° |
| 2026-04-15 08:42 | 45.89632 | 22.95378 | 1635 ft | 108 kts | 301° |
| 2026-04-15 08:42 | 45.90024 | 22.94463 | 1658 ft | 107 kts | 301° |
| 2026-04-15 08:42 | 45.90020 | 22.93444 | 1646 ft | 109 kts | 231° |
| 2026-04-15 08:43 | 45.89396 | 22.92831 | 1598 ft | 113 kts | 214° |
| 2026-04-15 08:43 | 45.88729 | 22.92215 | 1500 ft | 115 kts | 201° |
| 2026-04-15 08:43 | 45.88126 | 22.92696 | 1400 ft | 114 kts | 102° |
| 2026-04-15 08:43 | 45.87899 | 22.93727 | 1262 ft | 99 kts | 116° |
| 2026-04-15 08:44 | 45.87532 | 22.94561 | 987 ft | 100 kts | 124° |
| 2026-04-15 08:44 | 45.87188 | 22.95358 | 757 ft | 89 kts | 122° |
| 2026-04-15 08:44 | 45.86869 | 22.96061 | 647 ft | 77 kts | 123° |
| 2026-04-15 08:44 | 45.86640 | 22.96546 | 636 ft | 36 kts | 123° |
| 2026-04-15 08:45 | 45.86539 | 22.96774 | 643 ft | 18 kts | 139° |
| 2026-04-15 08:45 | 45.86489 | 22.96740 | 630 ft | 6 kts | 234° |
| 2026-04-15 08:45 | 45.86480 | 22.96722 | 630 ft | 4 kts | 242° |
| 2026-04-15 08:45 | 45.86438 | 22.96644 | 628 ft | 11 kts | 232° |
| 2026-04-15 08:46 | 45.86419 | 22.96589 | 627 ft | 1 kts | 208° |
| 2026-04-15 08:46 | 45.86422 | 22.96591 | 626 ft | 3 kts | 231° |
| 2026-04-15 08:46 | 45.86421 | 22.96590 | 627 ft | 1 kts | 232° |
| 2026-04-15 08:46 | 45.86422 | 22.96590 | 626 ft | 0 kts | 235° |
| 2026-04-15 08:47 | 45.86416 | 22.96588 | 627 ft | 0 kts | 156° |